sensor_id;sensor_type;location;lat;lon;timestamp;temperature;humidity
14252;DHT22;7210;51.502;10.722;2022-09-09T00:00:38;12.40;99.90
14252;DHT22;7210;51.502;10.722;2022-09-09T00:03:14;12.40;99.90
14252;DHT22;7210;51.502;10.722;2022-09-09T00:05:53;12.40;99.90
14252;DHT22;7210;51.502;10.722;2022-09-09T00:08:34;12.50;99.90
14252;DHT22;7210;51.502;10.722;2022-09-09T00:11:13;12.50;99.90
14252;DHT22;7210;51.502;10.722;2022-09-09T00:13:48;12.40;99.90
14252;DHT22;7210;51.502;10.722;2022-09-09T00:16:22;12.40;99.90
14252;DHT22;7210;51.502;10.722;2022-09-09T00:19:00;12.30;99.90
14252;DHT22;7210;51.502;10.722;2022-09-09T00:21:35;12.30;99.90
14252;DHT22;7210;51.502;10.722;2022-09-09T00:24:11;12.30;99.90
14252;DHT22;7210;51.502;10.722;2022-09-09T00:26:52;12.30;99.90
14252;DHT22;7210;51.502;10.722;2022-09-09T00:29:33;12.20;99.90
14252;DHT22;7210;51.502;10.722;2022-09-09T00:32:15;12.10;99.90
14252;DHT22;7210;51.502;10.722;2022-09-09T00:34:52;12.10;99.90
14252;DHT22;7210;51.502;10.722;2022-09-09T00:37:25;12.00;99.90
14252;DHT22;7210;51.502;10.722;2022-09-09T00:39:59;12.10;99.90
14252;DHT22;7210;51.502;10.722;2022-09-09T00:42:38;12.10;99.90
14252;DHT22;7210;51.502;10.722;2022-09-09T00:45:19;12.10;99.90
14252;DHT22;7210;51.502;10.722;2022-09-09T00:48:09;12.20;99.90
14252;DHT22;7210;51.502;10.722;2022-09-09T00:50:53;12.20;99.90
14252;DHT22;7210;51.502;10.722;2022-09-09T00:53:34;12.20;99.90
14252;DHT22;7210;51.502;10.722;2022-09-09T00:56:14;12.20;99.90
14252;DHT22;7210;51.502;10.722;2022-09-09T00:58:51;12.20;99.90
14252;DHT22;7210;51.502;10.722;2022-09-09T01:01:27;12.10;99.90
14252;DHT22;7210;51.502;10.722;2022-09-09T01:03:56;12.00;99.90
14252;DHT22;7210;51.502;10.722;2022-09-09T01:06:30;12.00;99.90
14252;DHT22;7210;51.502;10.722;2022-09-09T01:09:12;11.90;99.90
14252;DHT22;7210;51.502;10.722;2022-09-09T01:11:57;12.00;99.90
14252;DHT22;7210;51.502;10.722;2022-09-09T01:14:41;12.10;99.90
14252;DHT22;7210;51.502;10.722;2022-09-09T01:17:17;12.10;99.90
14252;DHT22;7210;51.502;10.722;2022-09-09T01:20:02;12.10;99.90
14252;DHT22;7210;51.502;10.722;2022-09-09T01:23:00;12.20;99.90
14252;DHT22;7210;51.502;10.722;2022-09-09T01:26:10;12.10;99.90
14252;DHT22;7210;51.502;10.722;2022-09-09T01:28:45;12.00;99.90
14252;DHT22;7210;51.502;10.722;2022-09-09T01:31:28;12.00;99.90
14252;DHT22;7210;51.502;10.722;2022-09-09T01:33:59;11.90;99.90
14252;DHT22;7210;51.502;10.722;2022-09-09T01:36:32;11.90;99.90
14252;DHT22;7210;51.502;10.722;2022-09-09T01:39:06;11.80;99.90
14252;DHT22;7210;51.502;10.722;2022-09-09T01:41:35;11.80;99.90
14252;DHT22;7210;51.502;10.722;2022-09-09T01:44:07;11.80;99.90
14252;DHT22;7210;51.502;10.722;2022-09-09T01:46:37;11.70;99.90
14252;DHT22;7210;51.502;10.722;2022-09-09T01:49:11;11.80;99.90
14252;DHT22;7210;51.502;10.722;2022-09-09T01:51:39;11.80;99.90
14252;DHT22;7210;51.502;10.722;2022-09-09T01:54:12;11.80;99.90
14252;DHT22;7210;51.502;10.722;2022-09-09T01:56:47;11.80;99.90
14252;DHT22;7210;51.502;10.722;2022-09-09T01:59:38;11.80;99.90
14252;DHT22;7210;51.502;10.722;2022-09-09T02:02:25;11.90;99.90
14252;DHT22;7210;51.502;10.722;2022-09-09T02:05:27;11.90;99.90
14252;DHT22;7210;51.502;10.722;2022-09-09T02:09:00;11.90;99.90
14252;DHT22;7210;51.502;10.722;2022-09-09T02:11:32;11.90;99.90
14252;DHT22;7210;51.502;10.722;2022-09-09T02:14:25;11.80;99.90
14252;DHT22;7210;51.502;10.722;2022-09-09T02:19:52;11.70;99.90
14252;DHT22;7210;51.502;10.722;2022-09-09T02:22:39;11.70;99.90
14252;DHT22;7210;51.502;10.722;2022-09-09T02:25:14;11.70;99.90
14252;DHT22;7210;51.502;10.722;2022-09-09T02:27:46;11.70;99.90
14252;DHT22;7210;51.502;10.722;2022-09-09T02:30:19;11.70;99.90
14252;DHT22;7210;51.502;10.722;2022-09-09T02:32:53;11.70;99.90
14252;DHT22;7210;51.502;10.722;2022-09-09T02:35:31;11.70;99.90
14252;DHT22;7210;51.502;10.722;2022-09-09T02:38:06;11.70;99.90
14252;DHT22;7210;51.502;10.722;2022-09-09T02:40:40;11.70;99.90
14252;DHT22;7210;51.502;10.722;2022-09-09T02:43:14;11.70;99.90
14252;DHT22;7210;51.502;10.722;2022-09-09T02:45:51;11.60;99.90
14252;DHT22;7210;51.502;10.722;2022-09-09T02:48:31;11.60;99.90
14252;DHT22;7210;51.502;10.722;2022-09-09T02:51:09;11.60;99.90
14252;DHT22;7210;51.502;10.722;2022-09-09T02:53:49;11.60;99.90
14252;DHT22;7210;51.502;10.722;2022-09-09T02:56:27;11.60;99.90
14252;DHT22;7210;51.502;10.722;2022-09-09T02:59:03;11.70;99.90
14252;DHT22;7210;51.502;10.722;2022-09-09T03:01:39;11.70;99.90
14252;DHT22;7210;51.502;10.722;2022-09-09T03:04:09;11.70;99.90
14252;DHT22;7210;51.502;10.722;2022-09-09T03:06:37;11.70;99.90
14252;DHT22;7210;51.502;10.722;2022-09-09T03:09:14;11.70;99.90
14252;DHT22;7210;51.502;10.722;2022-09-09T03:11:43;11.70;99.90
14252;DHT22;7210;51.502;10.722;2022-09-09T03:14:13;11.80;99.90
14252;DHT22;7210;51.502;10.722;2022-09-09T03:16:42;11.80;99.90
14252;DHT22;7210;51.502;10.722;2022-09-09T03:19:10;11.80;99.90
14252;DHT22;7210;51.502;10.722;2022-09-09T03:21:37;11.80;99.90
14252;DHT22;7210;51.502;10.722;2022-09-09T03:24:05;11.90;99.90
14252;DHT22;7210;51.502;10.722;2022-09-09T03:26:33;11.90;99.90
14252;DHT22;7210;51.502;10.722;2022-09-09T03:29:00;11.90;99.90
14252;DHT22;7210;51.502;10.722;2022-09-09T03:31:29;12.00;99.90
14252;DHT22;7210;51.502;10.722;2022-09-09T03:33:59;11.90;99.90
14252;DHT22;7210;51.502;10.722;2022-09-09T03:36:30;11.90;99.90
14252;DHT22;7210;51.502;10.722;2022-09-09T03:38:58;11.90;99.90
14252;DHT22;7210;51.502;10.722;2022-09-09T03:41:29;11.90;99.90
14252;DHT22;7210;51.502;10.722;2022-09-09T03:43:58;11.90;99.90
14252;DHT22;7210;51.502;10.722;2022-09-09T03:46:27;11.90;99.90
14252;DHT22;7210;51.502;10.722;2022-09-09T03:48:55;11.90;99.90
14252;DHT22;7210;51.502;10.722;2022-09-09T03:51:24;11.90;99.90
14252;DHT22;7210;51.502;10.722;2022-09-09T03:53:51;11.90;99.90
14252;DHT22;7210;51.502;10.722;2022-09-09T03:56:20;11.90;99.90
14252;DHT22;7210;51.502;10.722;2022-09-09T03:58:48;11.90;99.90
14252;DHT22;7210;51.502;10.722;2022-09-09T04:01:15;11.80;99.90
14252;DHT22;7210;51.502;10.722;2022-09-09T04:03:44;11.90;99.90
14252;DHT22;7210;51.502;10.722;2022-09-09T04:06:13;11.90;99.90
14252;DHT22;7210;51.502;10.722;2022-09-09T04:08:45;11.80;99.90
14252;DHT22;7210;51.502;10.722;2022-09-09T04:11:14;11.80;99.90
14252;DHT22;7210;51.502;10.722;2022-09-09T04:13:44;11.80;99.90
14252;DHT22;7210;51.502;10.722;2022-09-09T04:16:12;11.80;99.90
14252;DHT22;7210;51.502;10.722;2022-09-09T04:18:41;11.80;99.90
14252;DHT22;7210;51.502;10.722;2022-09-09T04:21:13;11.80;99.90
14252;DHT22;7210;51.502;10.722;2022-09-09T04:23:41;11.90;99.90
14252;DHT22;7210;51.502;10.722;2022-09-09T04:26:11;11.90;99.90
14252;DHT22;7210;51.502;10.722;2022-09-09T04:28:39;12.00;99.90
14252;DHT22;7210;51.502;10.722;2022-09-09T04:31:15;12.00;99.90
14252;DHT22;7210;51.502;10.722;2022-09-09T04:33:47;12.10;99.90
14252;DHT22;7210;51.502;10.722;2022-09-09T04:36:19;12.10;99.90
14252;DHT22;7210;51.502;10.722;2022-09-09T04:38:48;12.20;99.90
14252;DHT22;7210;51.502;10.722;2022-09-09T04:41:17;12.20;99.90
14252;DHT22;7210;51.502;10.722;2022-09-09T04:43:49;12.20;99.90
14252;DHT22;7210;51.502;10.722;2022-09-09T04:46:25;12.30;99.90
14252;DHT22;7210;51.502;10.722;2022-09-09T04:48:55;12.30;99.90
14252;DHT22;7210;51.502;10.722;2022-09-09T04:51:26;12.30;99.90
14252;DHT22;7210;51.502;10.722;2022-09-09T04:53:54;12.40;99.90
14252;DHT22;7210;51.502;10.722;2022-09-09T04:56:22;12.40;99.90
14252;DHT22;7210;51.502;10.722;2022-09-09T04:58:56;12.30;99.90
14252;DHT22;7210;51.502;10.722;2022-09-09T05:01:38;12.30;99.90
14252;DHT22;7210;51.502;10.722;2022-09-09T05:04:07;12.30;99.90
14252;DHT22;7210;51.502;10.722;2022-09-09T05:06:34;12.40;99.90
14252;DHT22;7210;51.502;10.722;2022-09-09T05:09:03;12.60;99.90
14252;DHT22;7210;51.502;10.722;2022-09-09T05:11:33;12.50;99.90
14252;DHT22;7210;51.502;10.722;2022-09-09T05:14:31;12.60;99.90
14252;DHT22;7210;51.502;10.722;2022-09-09T05:17:00;12.60;99.90
14252;DHT22;7210;51.502;10.722;2022-09-09T05:19:27;12.60;99.90
14252;DHT22;7210;51.502;10.722;2022-09-09T05:21:57;12.60;99.90
14252;DHT22;7210;51.502;10.722;2022-09-09T05:24:32;12.60;99.90
14252;DHT22;7210;51.502;10.722;2022-09-09T05:27:01;12.60;99.90
14252;DHT22;7210;51.502;10.722;2022-09-09T05:29:28;12.70;99.90
14252;DHT22;7210;51.502;10.722;2022-09-09T05:32:01;12.70;99.90
14252;DHT22;7210;51.502;10.722;2022-09-09T05:34:28;12.60;99.90
14252;DHT22;7210;51.502;10.722;2022-09-09T05:36:56;12.70;99.90
14252;DHT22;7210;51.502;10.722;2022-09-09T05:39:25;12.80;99.90
14252;DHT22;7210;51.502;10.722;2022-09-09T05:41:55;12.80;99.90
14252;DHT22;7210;51.502;10.722;2022-09-09T05:44:24;12.90;99.90
14252;DHT22;7210;51.502;10.722;2022-09-09T05:46:53;12.90;99.90
14252;DHT22;7210;51.502;10.722;2022-09-09T05:49:21;13.00;99.90
14252;DHT22;7210;51.502;10.722;2022-09-09T05:51:49;13.00;99.90
14252;DHT22;7210;51.502;10.722;2022-09-09T05:54:18;13.00;99.90
14252;DHT22;7210;51.502;10.722;2022-09-09T05:56:49;13.20;99.90
14252;DHT22;7210;51.502;10.722;2022-09-09T05:59:16;13.20;99.90
14252;DHT22;7210;51.502;10.722;2022-09-09T06:01:45;13.30;99.90
14252;DHT22;7210;51.502;10.722;2022-09-09T06:04:21;13.40;99.90
14252;DHT22;7210;51.502;10.722;2022-09-09T06:06:50;13.50;99.90
14252;DHT22;7210;51.502;10.722;2022-09-09T06:09:20;13.60;99.90
14252;DHT22;7210;51.502;10.722;2022-09-09T06:11:47;13.60;99.90
14252;DHT22;7210;51.502;10.722;2022-09-09T06:14:14;13.70;99.90
14252;DHT22;7210;51.502;10.722;2022-09-09T06:16:47;13.70;99.90
14252;DHT22;7210;51.502;10.722;2022-09-09T06:19:21;13.80;99.90
14252;DHT22;7210;51.502;10.722;2022-09-09T06:21:55;13.90;99.90
14252;DHT22;7210;51.502;10.722;2022-09-09T06:24:22;13.90;99.90
14252;DHT22;7210;51.502;10.722;2022-09-09T06:26:50;13.90;99.90
14252;DHT22;7210;51.502;10.722;2022-09-09T06:29:22;14.00;99.90
14252;DHT22;7210;51.502;10.722;2022-09-09T06:31:52;14.10;99.90
14252;DHT22;7210;51.502;10.722;2022-09-09T06:34:21;14.10;99.90
14252;DHT22;7210;51.502;10.722;2022-09-09T06:36:57;14.20;99.90
14252;DHT22;7210;51.502;10.722;2022-09-09T06:39:28;14.20;99.90
14252;DHT22;7210;51.502;10.722;2022-09-09T06:41:56;14.20;99.90
14252;DHT22;7210;51.502;10.722;2022-09-09T06:44:42;14.30;99.90
14252;DHT22;7210;51.502;10.722;2022-09-09T06:47:16;14.40;99.90
14252;DHT22;7210;51.502;10.722;2022-09-09T06:49:44;14.60;99.90
14252;DHT22;7210;51.502;10.722;2022-09-09T06:52:11;14.70;99.90
14252;DHT22;7210;51.502;10.722;2022-09-09T06:54:38;14.90;99.90
14252;DHT22;7210;51.502;10.722;2022-09-09T06:57:05;15.20;1.00
14252;DHT22;7210;51.502;10.722;2022-09-09T06:59:34;15.40;1.00
14252;DHT22;7210;51.502;10.722;2022-09-09T07:02:02;15.50;1.00
14252;DHT22;7210;51.502;10.722;2022-09-09T07:04:31;15.60;1.00
14252;DHT22;7210;51.502;10.722;2022-09-09T07:06:59;15.80;1.00
14252;DHT22;7210;51.502;10.722;2022-09-09T07:09:27;15.90;1.00
14252;DHT22;7210;51.502;10.722;2022-09-09T07:11:55;16.00;1.00
14252;DHT22;7210;51.502;10.722;2022-09-09T07:14:26;16.00;1.00
14252;DHT22;7210;51.502;10.722;2022-09-09T07:17:02;16.00;1.00
14252;DHT22;7210;51.502;10.722;2022-09-09T07:19:36;16.00;1.00
14252;DHT22;7210;51.502;10.722;2022-09-09T07:22:05;16.10;1.00
14252;DHT22;7210;51.502;10.722;2022-09-09T07:24:33;16.10;1.00
14252;DHT22;7210;51.502;10.722;2022-09-09T07:27:00;16.20;1.00
14252;DHT22;7210;51.502;10.722;2022-09-09T07:29:29;16.30;1.00
14252;DHT22;7210;51.502;10.722;2022-09-09T07:31:56;16.20;1.00
14252;DHT22;7210;51.502;10.722;2022-09-09T07:34:29;16.30;1.00
14252;DHT22;7210;51.502;10.722;2022-09-09T07:36:58;16.40;1.00
14252;DHT22;7210;51.502;10.722;2022-09-09T07:39:25;16.50;1.00
14252;DHT22;7210;51.502;10.722;2022-09-09T07:41:54;16.70;1.00
14252;DHT22;7210;51.502;10.722;2022-09-09T07:44:24;16.90;1.00
14252;DHT22;7210;51.502;10.722;2022-09-09T07:47:00;17.00;1.00
14252;DHT22;7210;51.502;10.722;2022-09-09T07:49:34;17.00;1.00
14252;DHT22;7210;51.502;10.722;2022-09-09T07:52:08;17.00;1.00
14252;DHT22;7210;51.502;10.722;2022-09-09T07:54:40;17.10;1.00
14252;DHT22;7210;51.502;10.722;2022-09-09T07:57:09;17.30;1.00
14252;DHT22;7210;51.502;10.722;2022-09-09T07:59:38;17.40;1.00
14252;DHT22;7210;51.502;10.722;2022-09-09T08:02:05;17.60;1.00
14252;DHT22;7210;51.502;10.722;2022-09-09T08:04:34;17.90;1.00
14252;DHT22;7210;51.502;10.722;2022-09-09T08:07:02;18.10;1.00
14252;DHT22;7210;51.502;10.722;2022-09-09T08:09:35;18.30;1.00
14252;DHT22;7210;51.502;10.722;2022-09-09T08:12:09;18.40;1.00
14252;DHT22;7210;51.502;10.722;2022-09-09T08:14:38;18.50;1.00
14252;DHT22;7210;51.502;10.722;2022-09-09T08:17:06;18.50;1.00
14252;DHT22;7210;51.502;10.722;2022-09-09T08:19:33;18.50;1.00
14252;DHT22;7210;51.502;10.722;2022-09-09T08:22:02;18.30;1.00
14252;DHT22;7210;51.502;10.722;2022-09-09T08:24:32;18.40;1.00
14252;DHT22;7210;51.502;10.722;2022-09-09T08:27:01;18.30;1.00
14252;DHT22;7210;51.502;10.722;2022-09-09T08:29:31;18.40;1.00
14252;DHT22;7210;51.502;10.722;2022-09-09T08:31:58;18.30;1.00
14252;DHT22;7210;51.502;10.722;2022-09-09T08:34:31;18.30;1.00
14252;DHT22;7210;51.502;10.722;2022-09-09T08:37:02;18.50;1.00
14252;DHT22;7210;51.502;10.722;2022-09-09T08:39:35;18.80;1.00
14252;DHT22;7210;51.502;10.722;2022-09-09T08:42:27;18.70;1.00
14252;DHT22;7210;51.502;10.722;2022-09-09T08:45:14;18.80;1.00
14252;DHT22;7210;51.502;10.722;2022-09-09T08:48:01;19.00;1.00
14252;DHT22;7210;51.502;10.722;2022-09-09T08:50:42;19.20;1.00
14252;DHT22;7210;51.502;10.722;2022-09-09T08:53:20;19.30;1.00
14252;DHT22;7210;51.502;10.722;2022-09-09T08:55:53;19.40;1.00
14252;DHT22;7210;51.502;10.722;2022-09-09T08:58:49;19.50;1.00
14252;DHT22;7210;51.502;10.722;2022-09-09T09:01:34;19.70;1.00
14252;DHT22;7210;51.502;10.722;2022-09-09T09:04:30;19.70;1.00
14252;DHT22;7210;51.502;10.722;2022-09-09T09:07:21;19.80;1.00
14252;DHT22;7210;51.502;10.722;2022-09-09T09:10:02;19.80;1.00
14252;DHT22;7210;51.502;10.722;2022-09-09T09:12:41;19.70;1.00
14252;DHT22;7210;51.502;10.722;2022-09-09T09:15:17;19.70;1.00
14252;DHT22;7210;51.502;10.722;2022-09-09T09:17:49;19.60;1.00
14252;DHT22;7210;51.502;10.722;2022-09-09T09:20:23;19.60;1.00
14252;DHT22;7210;51.502;10.722;2022-09-09T09:22:59;19.60;1.00
14252;DHT22;7210;51.502;10.722;2022-09-09T09:25:35;19.50;1.00
14252;DHT22;7210;51.502;10.722;2022-09-09T09:28:13;19.50;1.00
14252;DHT22;7210;51.502;10.722;2022-09-09T09:30:50;19.80;1.00
14252;DHT22;7210;51.502;10.722;2022-09-09T09:33:24;19.90;1.00
14252;DHT22;7210;51.502;10.722;2022-09-09T09:35:58;20.20;1.00
14252;DHT22;7210;51.502;10.722;2022-09-09T09:38:27;20.40;1.00
14252;DHT22;7210;51.502;10.722;2022-09-09T09:40:59;20.70;1.00
14252;DHT22;7210;51.502;10.722;2022-09-09T09:43:29;20.70;1.00
14252;DHT22;7210;51.502;10.722;2022-09-09T09:46:03;20.90;1.00
14252;DHT22;7210;51.502;10.722;2022-09-09T09:48:32;21.00;1.00
14252;DHT22;7210;51.502;10.722;2022-09-09T09:51:03;21.00;1.00
14252;DHT22;7210;51.502;10.722;2022-09-09T09:53:38;21.30;1.00
14252;DHT22;7210;51.502;10.722;2022-09-09T09:56:10;21.70;1.00
14252;DHT22;7210;51.502;10.722;2022-09-09T09:58:50;22.00;1.00
14252;DHT22;7210;51.502;10.722;2022-09-09T10:01:26;22.20;1.00
14252;DHT22;7210;51.502;10.722;2022-09-09T10:03:58;22.50;1.00
14252;DHT22;7210;51.502;10.722;2022-09-09T10:06:32;22.50;1.00
14252;DHT22;7210;51.502;10.722;2022-09-09T10:09:01;22.50;1.00
14252;DHT22;7210;51.502;10.722;2022-09-09T10:11:43;22.40;1.00
14252;DHT22;7210;51.502;10.722;2022-09-09T10:14:20;22.70;1.00
14252;DHT22;7210;51.502;10.722;2022-09-09T10:17:06;22.60;1.00
14252;DHT22;7210;51.502;10.722;2022-09-09T10:19:42;22.50;1.00
14252;DHT22;7210;51.502;10.722;2022-09-09T10:22:26;22.50;1.00
14252;DHT22;7210;51.502;10.722;2022-09-09T10:25:21;22.40;1.00
14252;DHT22;7210;51.502;10.722;2022-09-09T10:28:18;22.30;1.00
14252;DHT22;7210;51.502;10.722;2022-09-09T10:31:06;22.30;1.00
14252;DHT22;7210;51.502;10.722;2022-09-09T10:33:57;22.10;1.00
14252;DHT22;7210;51.502;10.722;2022-09-09T10:36:32;21.80;1.00
14252;DHT22;7210;51.502;10.722;2022-09-09T10:39:04;21.80;1.00
14252;DHT22;7210;51.502;10.722;2022-09-09T10:41:48;21.90;1.00
14252;DHT22;7210;51.502;10.722;2022-09-09T10:44:47;22.10;1.00
14252;DHT22;7210;51.502;10.722;2022-09-09T10:47:41;22.40;1.00
14252;DHT22;7210;51.502;10.722;2022-09-09T10:50:36;22.50;1.00
14252;DHT22;7210;51.502;10.722;2022-09-09T10:53:21;22.80;1.00
14252;DHT22;7210;51.502;10.722;2022-09-09T10:55:59;22.90;1.00
14252;DHT22;7210;51.502;10.722;2022-09-09T10:58:38;22.90;1.00
14252;DHT22;7210;51.502;10.722;2022-09-09T11:01:14;22.80;1.00
14252;DHT22;7210;51.502;10.722;2022-09-09T11:03:50;22.90;1.00
14252;DHT22;7210;51.502;10.722;2022-09-09T11:06:28;23.10;1.00
14252;DHT22;7210;51.502;10.722;2022-09-09T11:09:02;23.20;1.00
14252;DHT22;7210;51.502;10.722;2022-09-09T11:11:36;23.00;1.00
14252;DHT22;7210;51.502;10.722;2022-09-09T11:14:13;22.90;1.00
14252;DHT22;7210;51.502;10.722;2022-09-09T11:16:48;22.60;1.00
14252;DHT22;7210;51.502;10.722;2022-09-09T11:19:24;22.50;1.00
14252;DHT22;7210;51.502;10.722;2022-09-09T11:22:00;22.50;1.00
14252;DHT22;7210;51.502;10.722;2022-09-09T11:24:32;22.60;1.00
14252;DHT22;7210;51.502;10.722;2022-09-09T11:27:09;22.50;1.00
14252;DHT22;7210;51.502;10.722;2022-09-09T11:33:04;22.00;1.00
14252;DHT22;7210;51.502;10.722;2022-09-09T11:36:01;21.80;1.00
14252;DHT22;7210;51.502;10.722;2022-09-09T11:38:45;21.70;1.00
14252;DHT22;7210;51.502;10.722;2022-09-09T11:41:14;22.10;1.00
14252;DHT22;7210;51.502;10.722;2022-09-09T11:43:44;22.10;1.00
14252;DHT22;7210;51.502;10.722;2022-09-09T11:46:15;22.10;1.00
14252;DHT22;7210;51.502;10.722;2022-09-09T11:48:58;22.10;1.00
14252;DHT22;7210;51.502;10.722;2022-09-09T11:51:28;22.10;1.00
14252;DHT22;7210;51.502;10.722;2022-09-09T11:54:00;22.00;1.00
14252;DHT22;7210;51.502;10.722;2022-09-09T11:56:31;22.00;1.00
14252;DHT22;7210;51.502;10.722;2022-09-09T11:59:02;22.00;1.00
14252;DHT22;7210;51.502;10.722;2022-09-09T12:01:36;22.10;1.00
14252;DHT22;7210;51.502;10.722;2022-09-09T12:04:17;22.20;1.00
14252;DHT22;7210;51.502;10.722;2022-09-09T12:06:56;22.70;1.00
14252;DHT22;7210;51.502;10.722;2022-09-09T12:09:43;22.90;1.00
14252;DHT22;7210;51.502;10.722;2022-09-09T12:12:32;23.30;1.00
14252;DHT22;7210;51.502;10.722;2022-09-09T12:15:20;23.60;1.00
14252;DHT22;7210;51.502;10.722;2022-09-09T12:17:56;23.60;1.00
14252;DHT22;7210;51.502;10.722;2022-09-09T12:20:31;23.50;1.00
14252;DHT22;7210;51.502;10.722;2022-09-09T12:23:18;23.30;1.00
14252;DHT22;7210;51.502;10.722;2022-09-09T12:26:23;23.40;1.00
14252;DHT22;7210;51.502;10.722;2022-09-09T12:29:09;23.20;1.00
14252;DHT22;7210;51.502;10.722;2022-09-09T12:31:46;23.50;1.00
14252;DHT22;7210;51.502;10.722;2022-09-09T12:34:32;23.80;1.00
14252;DHT22;7210;51.502;10.722;2022-09-09T12:37:11;23.70;1.00
14252;DHT22;7210;51.502;10.722;2022-09-09T12:39:49;23.80;1.00
14252;DHT22;7210;51.502;10.722;2022-09-09T12:42:22;23.80;1.00
14252;DHT22;7210;51.502;10.722;2022-09-09T12:44:55;23.90;1.00
14252;DHT22;7210;51.502;10.722;2022-09-09T12:47:30;24.00;1.00
14252;DHT22;7210;51.502;10.722;2022-09-09T12:50:04;24.10;1.00
14252;DHT22;7210;51.502;10.722;2022-09-09T12:52:35;23.90;1.00
14252;DHT22;7210;51.502;10.722;2022-09-09T12:55:06;23.90;1.00
14252;DHT22;7210;51.502;10.722;2022-09-09T12:57:38;24.00;1.00
14252;DHT22;7210;51.502;10.722;2022-09-09T13:00:11;24.00;1.00
14252;DHT22;7210;51.502;10.722;2022-09-09T13:02:47;24.10;1.00
14252;DHT22;7210;51.502;10.722;2022-09-09T13:05:20;24.00;1.00
14252;DHT22;7210;51.502;10.722;2022-09-09T13:07:48;24.30;1.00
14252;DHT22;7210;51.502;10.722;2022-09-09T13:10:26;24.40;1.00
14252;DHT22;7210;51.502;10.722;2022-09-09T13:12:57;24.20;1.00
14252;DHT22;7210;51.502;10.722;2022-09-09T13:15:28;23.90;1.00
14252;DHT22;7210;51.502;10.722;2022-09-09T13:17:57;23.90;1.00
14252;DHT22;7210;51.502;10.722;2022-09-09T13:20:28;23.80;1.00
14252;DHT22;7210;51.502;10.722;2022-09-09T13:22:57;23.80;1.00
14252;DHT22;7210;51.502;10.722;2022-09-09T13:25:26;23.90;1.00
14252;DHT22;7210;51.502;10.722;2022-09-09T13:27:58;23.90;1.00
14252;DHT22;7210;51.502;10.722;2022-09-09T13:30:29;24.00;1.00
14252;DHT22;7210;51.502;10.722;2022-09-09T13:33:19;23.90;1.00
14252;DHT22;7210;51.502;10.722;2022-09-09T13:35:51;24.10;1.00
14252;DHT22;7210;51.502;10.722;2022-09-09T13:38:25;24.20;1.00
14252;DHT22;7210;51.502;10.722;2022-09-09T13:40:56;24.30;1.00
14252;DHT22;7210;51.502;10.722;2022-09-09T13:43:26;24.40;1.00
14252;DHT22;7210;51.502;10.722;2022-09-09T13:45:57;24.10;1.00
14252;DHT22;7210;51.502;10.722;2022-09-09T13:48:27;23.70;1.00
14252;DHT22;7210;51.502;10.722;2022-09-09T13:50:57;23.40;1.00
14252;DHT22;7210;51.502;10.722;2022-09-09T13:53:25;23.30;1.00
14252;DHT22;7210;51.502;10.722;2022-09-09T13:55:53;23.20;1.00
14252;DHT22;7210;51.502;10.722;2022-09-09T13:58:22;23.30;1.00
14252;DHT22;7210;51.502;10.722;2022-09-09T14:00:52;23.50;1.00
14252;DHT22;7210;51.502;10.722;2022-09-09T14:03:20;23.70;1.00
14252;DHT22;7210;51.502;10.722;2022-09-09T14:05:49;23.80;1.00
14252;DHT22;7210;51.502;10.722;2022-09-09T14:08:23;23.80;1.00
14252;DHT22;7210;51.502;10.722;2022-09-09T14:10:53;23.70;1.00
14252;DHT22;7210;51.502;10.722;2022-09-09T14:13:25;23.60;1.00
14252;DHT22;7210;51.502;10.722;2022-09-09T14:15:53;23.50;1.00
14252;DHT22;7210;51.502;10.722;2022-09-09T14:18:20;23.40;1.00
14252;DHT22;7210;51.502;10.722;2022-09-09T14:20:48;23.40;1.00
14252;DHT22;7210;51.502;10.722;2022-09-09T14:23:16;23.40;1.00
14252;DHT22;7210;51.502;10.722;2022-09-09T14:25:49;23.40;1.00
14252;DHT22;7210;51.502;10.722;2022-09-09T14:28:16;23.30;1.00
14252;DHT22;7210;51.502;10.722;2022-09-09T14:30:44;23.20;1.00
14252;DHT22;7210;51.502;10.722;2022-09-09T14:33:15;23.30;1.00
14252;DHT22;7210;51.502;10.722;2022-09-09T14:35:42;23.30;1.00
14252;DHT22;7210;51.502;10.722;2022-09-09T14:38:10;23.20;1.00
14252;DHT22;7210;51.502;10.722;2022-09-09T14:40:38;23.00;1.00
14252;DHT22;7210;51.502;10.722;2022-09-09T14:43:05;23.00;1.00
14252;DHT22;7210;51.502;10.722;2022-09-09T14:45:35;22.90;1.00
14252;DHT22;7210;51.502;10.722;2022-09-09T14:48:03;22.80;1.00
14252;DHT22;7210;51.502;10.722;2022-09-09T14:50:32;22.70;1.00
14252;DHT22;7210;51.502;10.722;2022-09-09T14:53:00;22.70;1.00
14252;DHT22;7210;51.502;10.722;2022-09-09T14:55:27;22.90;1.00
14252;DHT22;7210;51.502;10.722;2022-09-09T14:57:55;23.00;1.00
14252;DHT22;7210;51.502;10.722;2022-09-09T15:00:22;23.10;1.00
14252;DHT22;7210;51.502;10.722;2022-09-09T15:02:52;23.20;1.00
14252;DHT22;7210;51.502;10.722;2022-09-09T15:05:19;23.20;1.00
14252;DHT22;7210;51.502;10.722;2022-09-09T15:07:48;23.10;1.00
14252;DHT22;7210;51.502;10.722;2022-09-09T15:10:15;23.00;1.00
14252;DHT22;7210;51.502;10.722;2022-09-09T15:12:43;22.90;1.00
14252;DHT22;7210;51.502;10.722;2022-09-09T15:15:11;22.80;1.00
14252;DHT22;7210;51.502;10.722;2022-09-09T15:17:39;22.90;1.00
14252;DHT22;7210;51.502;10.722;2022-09-09T15:20:07;22.90;1.00
14252;DHT22;7210;51.502;10.722;2022-09-09T15:22:35;23.00;1.00
14252;DHT22;7210;51.502;10.722;2022-09-09T15:25:05;23.20;1.00
14252;DHT22;7210;51.502;10.722;2022-09-09T15:27:34;23.10;1.00
14252;DHT22;7210;51.502;10.722;2022-09-09T15:30:05;23.00;1.00
14252;DHT22;7210;51.502;10.722;2022-09-09T15:32:33;23.00;1.00
14252;DHT22;7210;51.502;10.722;2022-09-09T15:35:00;22.90;1.00
14252;DHT22;7210;51.502;10.722;2022-09-09T15:37:28;22.90;1.00
14252;DHT22;7210;51.502;10.722;2022-09-09T15:39:55;22.70;1.00
14252;DHT22;7210;51.502;10.722;2022-09-09T15:42:25;22.60;1.00
14252;DHT22;7210;51.502;10.722;2022-09-09T15:44:53;22.60;1.00
14252;DHT22;7210;51.502;10.722;2022-09-09T15:47:20;22.70;1.00
14252;DHT22;7210;51.502;10.722;2022-09-09T15:49:47;22.80;1.00
14252;DHT22;7210;51.502;10.722;2022-09-09T15:52:14;22.80;1.00
14252;DHT22;7210;51.502;10.722;2022-09-09T15:54:41;22.90;1.00
14252;DHT22;7210;51.502;10.722;2022-09-09T15:57:12;23.00;1.00
14252;DHT22;7210;51.502;10.722;2022-09-09T15:59:41;23.00;1.00
14252;DHT22;7210;51.502;10.722;2022-09-09T16:02:10;22.80;1.00
14252;DHT22;7210;51.502;10.722;2022-09-09T16:04:38;22.60;1.00
14252;DHT22;7210;51.502;10.722;2022-09-09T16:07:05;22.40;1.00
14252;DHT22;7210;51.502;10.722;2022-09-09T16:09:33;22.30;1.00
14252;DHT22;7210;51.502;10.722;2022-09-09T16:12:03;22.20;1.00
14252;DHT22;7210;51.502;10.722;2022-09-09T16:14:35;22.10;1.00
14252;DHT22;7210;51.502;10.722;2022-09-09T16:17:04;21.90;1.00
14252;DHT22;7210;51.502;10.722;2022-09-09T16:19:33;21.80;1.00
14252;DHT22;7210;51.502;10.722;2022-09-09T16:22:01;21.70;1.00
14252;DHT22;7210;51.502;10.722;2022-09-09T16:24:29;21.70;1.00
14252;DHT22;7210;51.502;10.722;2022-09-09T16:26:56;21.60;1.00